Aérodrome :







RETROUVEZ-NOUS SUR...

 
LOGIN :

S'inscrire | Disclaimer

   EN    FR    IT 

 









Légende :    VFR   VFR Marginal   IFR   IFR Intensif   IFR Très Intensif
Visi : 
Plafond : 
>= 8 km
>= 3000ft
5 à 8 km
1000 à 3000 ft
1500m à 5 km
500 à 1000 ft
800 à 1500m
200 à 500 ft
< 800m
< 200 ft
Symboles :   Orages  Brouillard  Fortes neiges  Fortes précipitations  Vent > 20 kt






- Altitude de l'aérodrome : 160 ft
- Code IATA : YYR


CYYR - Goose Bay

DERNIER METAR :
  • 262339Z 08005KT 4SM -SN FEW018 BKN021 OVC040 M09/M10 A2990 RMK SC1SC5SC3 SLP130

METARs EXPIRÉS :
  • 262300Z 08006KT 10SM -SN FEW018 BKN023 OVC038 M08/M09 A2991 RMK SC1SC6SC2 SLP133
  • 262242Z 06007KT 10SM -SN BKN023 OVC039 M08/M09 A2991 RMK SC5SC3 SLP132
  • 262200Z 06005KT 10SM OVC042 M08/M09 A2990 RMK SC8 /S01/ SLP131
  • 262139Z 07008KT 7SM -SN FEW026 OVC043 M08/M09 A2990 RMK SC2SC6 SLP129
  • 262100Z 08007KT 2 1/2SM -SN SCT024 OVC038 M07/M10 A2989 RMK SC3SC5 SLP128
  • 262043Z 07005KT 1 1/2SM -SN OVC023 M07/M09 A2990 RMK SN4SC4 SLP128

TAF TAF CYYR
Valide du 27 à 00h jusqu'au 28 à 00h UTC


262330Z 2700/2724 08005KT P6SM -SN FEW015 OVC040
TEMPO 2700/2702 2SM -SHSN BKN015 OVC040
FM270200 04008KT 4SM -SN FEW008 BKN020
TEMPO 2702/2707 11/2SM -SHSN BKN008 OVC020
BECMG 2702/2704 04010G20KT
FM271000 04015G25KT P6SM BKN020 OVC070
FM271300 04012G22KT P6SM SCT020 BKN150
BECMG 2721/2723 01012KT RMK NXT FCST BY 270600Z



MET'MAP, la Météo Aéronautique d'un coup d'oeil ! - Copyright ORBIFLY Décembre 2007 - Disclaimer

ORBIFLY MET'MAP TEAM :

Programmation & Développement : Alexandra Zaïnal
Sur une idée originale de : Baudouin d'Aumeries
Assistance à la programmation : Marc-Olivier Méhu
Soutien technique & logistique : Manuel Goepfert

Contact : metmap@orbifly.com




SOURCES & CREDITS :

   NOAA